Time;durP1;ratioP1;P1;durP2;ratioP2;P2;SDS_P1;SDS_P2;PMS_P1;PMS_P2;Temp;Humidity;BMP_temperature;BMP_pressure;BME280_temperature;BME280_humidity;BME280_pressure;Samples;Min_cycle;Max_cycle;Signal;HPM_P1;HPM_P2
2022/07/11 00:02:04;;;;;;;0.32;0.10;;;;;;;17.51;100.00;102349.72;10454071;28;20067;-77
2022/07/11 00:07:07;;;;;;;0.30;0.10;;;;;;;17.41;100.00;102351.28;10451403;28;20111;-78
2022/07/11 00:12:15;;;;;;;0.10;0.10;;;;;;;17.43;100.00;102347.84;10456267;28;20049;-78
2022/07/11 00:17:17;;;;;;;0.40;0.38;;;;;;;17.47;100.00;102353.09;10457358;28;20051;-77
2022/07/11 00:22:18;;;;;;;0.57;0.57;;;;;;;17.20;100.00;102346.47;10457563;28;20130;-77
2022/07/11 00:27:20;;;;;;;0.60;0.40;;;;;;;17.32;100.00;102351.06;10444426;28;20047;-78
2022/07/11 00:32:21;;;;;;;0.20;0.20;;;;;;;17.19;100.00;102355.13;10488591;28;20041;-77
2022/07/11 00:37:23;;;;;;;0.10;0.00;;;;;;;17.27;100.00;102350.97;10444386;28;20052;-79
2022/07/11 00:42:25;;;;;;;0.38;0.10;;;;;;;17.26;100.00;102346.59;10434839;28;20037;-79
2022/07/11 00:47:27;;;;;;;0.35;0.10;;;;;;;17.26;100.00;102341.38;10449947;28;21310;-79
2022/07/11 00:52:29;;;;;;;0.00;0.00;;;;;;;17.22;100.00;102344.78;10436080;28;20033;-78
2022/07/11 00:57:33;;;;;;;0.00;0.00;;;;;;;17.10;100.00;102334.97;10459731;28;20049;-79
2022/07/11 01:02:37;;;;;;;0.10;0.10;;;;;;;17.10;100.00;102338.47;10446588;28;20045;-79
2022/07/11 01:07:39;;;;;;;0.00;0.00;;;;;;;17.17;100.00;102333.38;10445192;28;20490;-79
2022/07/11 01:12:41;;;;;;;0.20;0.10;;;;;;;17.07;100.00;102330.59;10462022;28;20048;-79
2022/07/11 01:17:43;;;;;;;0.05;0.00;;;;;;;17.06;100.00;102334.03;10462289;28;20041;-78
2022/07/11 01:22:51;;;;;;;0.00;0.00;;;;;;;17.12;100.00;102335.91;10461137;28;20514;-79
2022/07/11 01:27:52;;;;;;;0.47;0.20;;;;;;;17.02;100.00;102333.94;10461618;28;20051;-79
2022/07/11 01:33:04;;;;;;;0.10;0.10;;;;;;;16.75;100.00;102341.13;10451867;28;20045;-79
2022/07/11 01:38:05;;;;;;;0.00;0.00;;;;;;;16.88;100.00;102341.38;10443536;28;20052;-79
2022/07/11 01:43:07;;;;;;;0.00;0.00;;;;;;;16.89;100.00;102346.66;10461230;28;20041;-79
2022/07/11 01:48:09;;;;;;;0.00;0.00;;;;;;;16.60;100.00;102348.56;10458080;28;20056;-79
2022/07/11 01:53:11;;;;;;;0.28;0.00;;;;;;;16.74;100.00;102341.09;10460286;28;20044;-79
2022/07/11 01:58:13;;;;;;;0.00;0.00;;;;;;;16.60;100.00;102351.16;10448348;28;20110;-78
2022/07/11 02:03:14;;;;;;;0.00;0.00;;;;;;;16.64;100.00;102361.69;10453983;28;20033;-79
2022/07/11 02:08:17;;;;;;;0.10;0.10;;;;;;;16.49;100.00;102361.31;10449997;28;20504;-79
2022/07/11 02:13:20;;;;;;;0.00;0.00;;;;;;;16.33;100.00;102360.06;10435501;28;20048;-79
2022/07/11 02:18:22;;;;;;;0.00;0.00;;;;;;;16.43;100.00;102358.56;10436925;28;20053;-79
2022/07/11 02:23:24;;;;;;;0.10;0.10;;;;;;;16.30;100.00;102368.66;10442047;28;20412;-79
2022/07/11 02:28:26;;;;;;;0.10;0.10;;;;;;;16.22;100.00;102372.78;10458152;28;20053;-79
2022/07/11 02:33:28;;;;;;;0.00;0.00;;;;;;;16.42;100.00;102362.88;10446043;28;20071;-79
2022/07/11 02:38:29;;;;;;;0.10;0.10;;;;;;;16.68;100.00;102362.63;10442148;28;20048;-79
2022/07/11 02:43:31;;;;;;;0.00;0.00;;;;;;;16.53;100.00;102362.25;10455843;28;20052;-79
2022/07/11 02:48:33;;;;;;;0.00;0.00;;;;;;;16.62;100.00;102352.09;10452105;28;20049;-79
2022/07/11 02:53:34;;;;;;;0.00;0.00;;;;;;;16.55;100.00;102350.19;10447919;28;20041;-79
2022/07/11 02:58:37;;;;;;;0.00;0.00;;;;;;;16.48;100.00;102354.34;10458208;28;20044;-79
2022/07/11 03:03:37;;;;;;;0.00;0.00;;;;;;;16.49;100.00;102356.09;10458463;28;20040;-79
2022/07/11 03:08:40;;;;;;;0.08;0.00;;;;;;;16.62;100.00;102362.50;10440219;28;20577;-79
2022/07/11 03:13:41;;;;;;;0.00;0.00;;;;;;;16.59;100.00;102359.81;10453119;28;20044;-79
2022/07/11 03:18:46;;;;;;;0.00;0.00;;;;;;;16.57;100.00;102364.13;10441454;22;20044;-78
2022/07/11 03:23:49;;;;;;;0.00;0.00;;;;;;;16.64;100.00;102363.41;10424803;28;20120;-79
2022/07/11 03:28:51;;;;;;;0.00;0.00;;;;;;;16.58;100.00;102365.84;10467312;28;20098;-78
2022/07/11 03:33:53;;;;;;;0.00;0.00;;;;;;;16.55;100.00;102373.59;10452528;28;20045;-78
2022/07/11 03:38:55;;;;;;;0.00;0.00;;;;;;;16.74;100.00;102372.31;10433686;28;20057;-79
2022/07/11 03:43:57;;;;;;;0.00;0.00;;;;;;;16.64;100.00;102363.41;10449466;28;20118;-78
2022/07/11 03:48:58;;;;;;;0.00;0.00;;;;;;;16.68;100.00;102367.84;10446770;28;20148;-78
2022/07/11 03:54:00;;;;;;;0.10;0.10;;;;;;;16.41;100.00;102381.03;10433537;28;20140;-79
2022/07/11 03:59:02;;;;;;;0.10;0.08;;;;;;;16.62;100.00;102372.91;10435893;28;20507;-79
2022/07/11 04:04:08;;;;;;;0.05;0.00;;;;;;;16.46;100.00;102372.53;10451646;28;20167;-78
2022/07/11 04:09:17;;;;;;;0.00;0.00;;;;;;;16.50;100.00;102374.34;10444560;28;20484;-79
2022/07/11 04:14:19;;;;;;;0.00;0.00;;;;;;;16.43;100.00;102369.84;10450292;28;20135;-78
2022/07/11 04:19:20;;;;;;;0.08;0.08;;;;;;;16.41;100.00;102374.13;10444131;28;20049;-78
2022/07/11 04:24:22;;;;;;;0.43;0.10;;;;;;;16.37;100.00;102376.63;10443509;28;20053;-78
2022/07/11 04:29:23;;;;;;;0.20;0.08;;;;;;;16.43;100.00;102381.97;10442571;28;20045;-79
2022/07/11 04:34:25;;;;;;;0.00;0.00;;;;;;;16.50;100.00;102389.09;10446907;28;20042;-78
2022/07/11 04:39:27;;;;;;;0.03;0.03;;;;;;;16.62;100.00;102384.19;10433416;28;20049;-78
2022/07/11 04:44:30;;;;;;;0.10;0.10;;;;;;;16.42;100.00;102391.47;10441831;28;20052;-78
2022/07/11 04:49:32;;;;;;;0.47;0.28;;;;;;;16.32;100.00;102397.31;10447693;28;20435;-79
2022/07/11 04:54:33;;;;;;;0.20;0.20;;;;;;;16.47;100.00;102404.59;10446655;28;20048;-78
2022/07/11 04:59:35;;;;;;;0.00;0.00;;;;;;;16.47;100.00;102404.59;10443319;28;20710;-79
2022/07/11 05:04:37;;;;;;;0.20;0.20;;;;;;;16.55;100.00;102420.44;10431783;28;20052;-79
2022/07/11 05:09:39;;;;;;;0.00;0.00;;;;;;;16.64;100.00;102420.66;10455880;28;20053;-79
2022/07/11 05:14:41;;;;;;;0.28;0.22;;;;;;;16.71;100.00;102409.56;10458166;28;20143;-80
2022/07/11 05:19:42;;;;;;;0.00;0.00;;;;;;;16.74;100.00;102407.03;10476173;28;20108;-78
2022/07/11 05:24:44;;;;;;;0.10;0.10;;;;;;;16.67;100.00;102410.31;10468875;28;20049;-79
2022/07/11 05:29:46;;;;;;;0.10;0.10;;;;;;;16.92;100.00;102413.53;10475065;28;20503;-79
2022/07/11 05:34:48;;;;;;;0.45;0.00;;;;;;;16.94;100.00;102414.47;10452522;28;20044;-79
2022/07/11 05:39:50;;;;;;;0.10;0.10;;;;;;;17.12;100.00;102399.25;10455225;28;20056;-79
2022/07/11 05:44:52;;;;;;;0.08;0.08;;;;;;;17.08;100.00;102410.47;10471877;28;20503;-79
2022/07/11 05:49:53;;;;;;;0.00;0.00;;;;;;;17.28;100.00;102407.44;10441054;28;20052;-78
2022/07/11 05:54:55;;;;;;;0.00;0.00;;;;;;;17.31;100.00;102410.13;10450766;28;20045;-79
2022/07/11 05:59:57;;;;;;;0.00;0.00;;;;;;;17.41;100.00;102399.03;10442882;28;20041;-79
2022/07/11 06:04:59;;;;;;;0.00;0.00;;;;;;;17.52;100.00;102401.00;10442321;28;20489;-78
2022/07/11 06:10:01;;;;;;;1.45;0.30;;;;;;;17.57;100.00;102414.97;10440668;28;20393;-79
2022/07/11 06:15:03;;;;;;;0.40;0.13;;;;;;;17.86;100.00;102412.09;10431206;28;20055;-78
2022/07/11 06:20:05;;;;;;;0.00;0.00;;;;;;;18.02;100.00;102408.97;10417949;28;20049;-78
2022/07/11 06:25:09;;;;;;;0.00;0.00;;;;;;;17.98;100.00;102407.16;10450504;28;20408;-78
2022/07/11 06:30:10;;;;;;;0.00;0.00;;;;;;;18.31;100.00;102406.00;10440852;28;20052;-78
2022/07/11 06:35:12;;;;;;;0.00;0.00;;;;;;;18.30;100.00;102404.25;10447787;28;20044;-79
2022/07/11 06:40:17;;;;;;;0.03;0.00;;;;;;;18.54;100.00;102402.91;10448142;28;20265;-79
2022/07/11 06:45:18;;;;;;;0.00;0.00;;;;;;;18.25;100.00;102395.47;10467673;28;20050;-79
2022/07/11 06:50:20;;;;;;;0.00;0.00;;;;;;;18.14;100.00;102397.00;10433666;28;20082;-79
2022/07/11 06:55:22;;;;;;;0.00;0.00;;;;;;;18.05;100.00;102398.59;10448177;28;20052;-78
2022/07/11 07:00:24;;;;;;;0.00;0.00;;;;;;;18.16;100.00;102395.31;10446537;28;20099;-79
2022/07/11 07:05:26;;;;;;;0.00;0.00;;;;;;;18.30;100.00;102399.03;10445455;28;20555;-79
2022/07/11 07:10:27;;;;;;;0.00;0.00;;;;;;;18.59;100.00;102393.44;10461761;28;20045;-78
2022/07/11 07:15:29;;;;;;;0.03;0.00;;;;;;;18.80;100.00;102389.44;10443878;28;20052;-78
2022/07/11 07:20:31;;;;;;;0.00;0.00;;;;;;;19.05;100.00;102379.34;10441133;28;20049;-78
2022/07/11 07:25:33;;;;;;;0.00;0.00;;;;;;;18.67;100.00;102394.44;10417957;28;20048;-78
2022/07/11 07:30:35;;;;;;;0.20;0.10;;;;;;;18.65;100.00;102396.13;10434085;28;20049;-79
2022/07/11 07:35:36;;;;;;;0.00;0.00;;;;;;;18.64;100.00;102397.00;10442275;28;20499;-79
2022/07/11 07:40:38;;;;;;;0.43;0.32;;;;;;;18.51;100.00;102395.03;10446617;28;20406;-79
2022/07/11 07:45:39;;;;;;;0.00;0.00;;;;;;;18.59;100.00;102400.41;10442554;28;20048;-78
2022/07/11 07:50:42;;;;;;;0.00;0.00;;;;;;;19.01;100.00;102387.16;10433178;28;20034;-78
2022/07/11 07:55:43;;;;;;;0.00;0.00;;;;;;;18.75;100.00;102391.97;10441025;28;20049;-78
2022/07/11 08:06:05;;;;;;;0.00;0.00;;;;;;;18.98;100.00;102410.63;10430108;28;20044;-79
2022/07/11 08:11:07;;;;;;;0.00;0.00;;;;;;;19.21;100.00;102397.00;10438347;28;20535;-78
2022/07/11 08:16:31;;;;;;;0.00;0.00;;;;;;;19.45;100.00;102403.41;10434951;28;20060;-78
2022/07/11 08:21:34;;;;;;;0.30;0.20;;;;;;;19.32;100.00;102416.31;10412530;28;20521;-78
2022/07/11 08:26:36;;;;;;;0.00;0.00;;;;;;;18.91;100.00;102408.72;10416031;28;20077;-79
2022/07/11 08:31:38;;;;;;;0.00;0.00;;;;;;;18.99;100.00;102412.38;10431284;28;20041;-78
2022/07/11 08:36:40;;;;;;;0.08;0.00;;;;;;;19.01;100.00;102421.13;10433597;28;20498;-79
2022/07/11 08:41:45;;;;;;;0.13;0.13;;;;;;;18.84;100.00;102414.72;10420215;28;20073;-78
2022/07/11 08:46:48;;;;;;;0.03;0.03;;;;;;;18.81;100.00;102418.16;10452034;28;20049;-78
2022/07/11 08:51:50;;;;;;;0.17;0.00;;;;;;;18.82;100.00;102413.81;10447266;28;20499;-78
2022/07/11 08:56:55;;;;;;;0.00;0.00;;;;;;;19.16;100.00;102396.06;10445600;28;20077;-78
2022/07/11 09:02:03;;;;;;;0.00;0.00;;;;;;;19.21;100.00;102386.56;10443848;28;20114;-79
2022/07/11 09:07:06;;;;;;;0.00;0.00;;;;;;;19.58;100.00;102381.78;10436416;28;20446;-78
2022/07/11 09:12:12;;;;;;;0.00;0.00;;;;;;;19.46;100.00;102379.03;10439323;28;20496;-78
2022/07/11 09:17:14;;;;;;;0.00;0.00;;;;;;;19.00;100.00;102398.47;10441859;28;20048;-80
2022/07/11 09:27:49;;;;;;;0.00;0.00;;;;;;;19.22;100.00;102403.09;10452052;28;20466;-78
2022/07/11 09:33:04;;;;;;;0.00;0.00;;;;;;;19.01;100.00;102415.91;10446728;28;20408;-79
2022/07/11 09:38:08;;;;;;;0.00;0.00;;;;;;;19.20;100.00;102405.69;10443863;28;20045;-78
2022/07/11 09:43:10;;;;;;;0.20;0.10;;;;;;;19.59;100.00;102407.09;10447105;28;20041;-78
2022/07/11 09:48:13;;;;;;;0.00;0.00;;;;;;;19.86;100.00;102396.97;10445164;28;20053;-78
2022/07/11 09:53:15;;;;;;;0.20;0.20;;;;;;;19.56;100.00;102401.81;10440970;28;20087;-78
2022/07/11 09:58:17;;;;;;;0.00;0.00;;;;;;;19.61;100.00;102407.09;10431044;28;20613;-78
2022/07/11 10:03:22;;;;;;;0.00;0.00;;;;;;;19.37;100.00;102397.22;10421411;28;20388;-78
2022/07/11 10:08:44;;;;;;;0.00;0.00;;;;;;;19.36;100.00;102396.31;10440414;28;20045;-78
2022/07/11 10:13:46;;;;;;;0.10;0.08;;;;;;;19.56;100.00;102398.31;10436508;28;20045;-78
2022/07/11 10:19:05;;;;;;;0.00;0.00;;;;;;;19.54;100.00;102395.72;10439194;28;20056;-78
2022/07/11 10:24:18;;;;;;;0.00;0.00;;;;;;;20.11;100.00;102393.72;10429240;28;20037;-79
2022/07/11 10:29:31;;;;;;;0.28;0.00;;;;;;;20.54;100.00;102397.63;10419923;28;20049;-78
2022/07/11 10:34:32;;;;;;;0.00;0.00;;;;;;;20.83;100.00;102395.22;10438809;28;20045;-78
2022/07/11 10:39:36;;;;;;;0.00;0.00;;;;;;;20.76;100.00;102401.28;10444987;28;20392;-78
2022/07/11 10:44:53;;;;;;;0.00;0.00;;;;;;;20.48;100.00;102401.06;10420606;28;20033;-78
2022/07/11 10:49:56;;;;;;;0.00;0.00;;;;;;;20.98;100.00;102411.91;10444018;28;20400;-79
2022/07/11 10:55:20;;;;;;;0.00;0.00;;;;;;;20.99;100.00;102400.56;10450377;28;20458;-79
2022/07/11 11:00:21;;;;;;;0.00;0.00;;;;;;;20.72;100.00;102403.00;10434478;28;20052;-79
2022/07/11 11:05:54;;;;;;;0.00;0.00;;;;;;;20.57;100.00;102401.13;10438919;28;20041;-79
2022/07/11 11:10:55;;;;;;;0.00;0.00;;;;;;;20.86;100.00;102405.75;10443448;28;20045;-78
2022/07/11 11:15:59;;;;;;;0.00;0.00;;;;;;;20.65;100.00;102405.56;10443936;28;20368;-79
2022/07/11 11:21:09;;;;;;;0.00;0.00;;;;;;;21.02;100.00;102400.59;10432984;28;20053;-78
2022/07/11 11:26:15;;;;;;;;;;;;;;;20.75;100.00;102407.41;10451338;28;20040;-78
2022/07/11 11:31:17;;;;;;;0.00;0.00;;;;;;;21.27;100.00;102405.97;10449401;28;19947;-79
2022/07/11 11:36:22;;;;;;;0.00;0.00;;;;;;;21.84;100.00;102401.88;10444290;28;20064;-79
2022/07/11 11:41:24;;;;;;;0.00;0.00;;;;;;;22.12;100.00;102398.41;10450680;28;20492;-78
2022/07/11 11:46:29;;;;;;;0.00;0.00;;;;;;;22.48;100.00;102394.97;10448295;28;20488;-78
2022/07/11 11:51:32;;;;;;;0.03;0.03;;;;;;;22.21;100.00;102385.31;10444173;28;20045;-78
2022/07/11 11:56:36;;;;;;;0.00;0.00;;;;;;;22.34;100.00;102383.56;10446071;28;20048;-79
2022/07/11 12:01:46;;;;;;;0.00;0.00;;;;;;;22.47;100.00;102380.09;10449072;28;20036;-78
2022/07/11 12:06:49;;;;;;;0.00;0.00;;;;;;;22.05;100.00;102386.16;10448448;28;20045;-79
2022/07/11 12:12:43;;;;;;;0.00;0.00;;;;;;;21.97;100.00;102387.00;10437109;28;20042;-78
2022/07/11 12:17:13;;;;;;;0.00;0.00;;;;;;;22.12;99.81;102378.31;10441342;28;20128;-78
2022/07/11 12:22:15;;;;;;;0.00;0.00;;;;;;;22.32;100.00;102385.31;10433849;28;20470;-78
2022/07/11 12:27:21;;;;;;;0.10;0.10;;;;;;;22.12;100.00;102378.31;10455860;28;20037;-77
2022/07/11 12:32:23;;;;;;;0.00;0.00;;;;;;;21.69;100.00;102381.72;10447317;28;20040;-78
2022/07/11 12:37:35;;;;;;;0.20;0.00;;;;;;;21.73;100.00;102390.47;10449760;28;20049;-78
2022/07/11 12:42:38;;;;;;;0.10;0.05;;;;;;;21.81;100.00;102382.63;10449117;28;20389;-78
2022/07/11 12:47:42;;;;;;;0.00;0.00;;;;;;;21.92;100.00;102370.41;10451576;28;20495;-79
2022/07/11 12:52:47;;;;;;;0.00;0.00;;;;;;;22.11;100.00;102366.06;10444447;28;20136;-78
2022/07/11 12:58:09;;;;;;;0.00;0.00;;;;;;;22.17;100.00;102371.28;10453599;28;20465;-78
2022/07/11 13:03:11;;;;;;;0.10;0.00;;;;;;;22.29;100.00;102372.19;10450548;28;20140;-78
2022/07/11 13:08:45;;;;;;;0.00;0.00;;;;;;;21.77;100.00;102376.50;10476429;28;20056;-78
2022/07/11 13:13:48;;;;;;;0.00;0.00;;;;;;;21.77;100.00;102376.50;10457405;28;20385;-78
2022/07/11 13:18:50;;;;;;;0.00;0.00;;;;;;;21.76;100.00;102374.75;10438223;28;20132;-78
2022/07/11 13:23:52;;;;;;;0.00;0.00;;;;;;;21.33;100.00;102379.81;10451724;28;20524;-78
2022/07/11 13:28:54;;;;;;;0.10;0.10;;;;;;;21.52;100.00;102383.38;10445770;28;20044;-78
2022/07/11 13:33:56;;;;;;;0.00;0.00;;;;;;;22.05;100.00;102387.03;10448268;28;20037;-78
2022/07/11 13:38:58;;;;;;;0.00;0.00;;;;;;;22.00;100.00;102388.78;10451093;28;20547;-78
2022/07/11 13:43:59;;;;;;;0.00;0.00;;;;;;;22.45;100.00;102381.84;10437041;28;20490;-78
2022/07/11 13:49:01;;;;;;;0.00;0.00;;;;;;;22.10;99.98;102379.19;10452560;28;20045;-79
2022/07/11 13:54:03;;;;;;;0.08;0.08;;;;;;;22.25;99.61;102373.94;10453147;28;20500;-78
2022/07/11 13:59:05;;;;;;;0.00;0.00;;;;;;;22.68;100.00;102373.06;10442299;28;20056;-78
2022/07/11 14:04:07;;;;;;;0.00;0.00;;;;;;;22.26;99.18;102369.56;10447715;28;20044;-79
2022/07/11 14:09:10;;;;;;;0.00;0.00;;;;;;;22.51;100.00;102370.47;10448548;28;20620;-79
2022/07/11 14:14:12;;;;;;;0.10;0.10;;;;;;;22.59;100.00;102366.06;10448720;28;20349;-79
2022/07/11 14:19:14;;;;;;;0.08;0.00;;;;;;;23.00;99.34;102366.88;10465735;28;20060;-78
2022/07/11 14:24:16;;;;;;;0.00;0.00;;;;;;;22.66;96.62;102364.31;10453427;28;20048;-78
2022/07/11 14:29:17;;;;;;;0.00;0.00;;;;;;;22.61;100.00;102363.44;10451738;28;20511;-78
2022/07/11 14:34:20;;;;;;;0.00;0.00;;;;;;;22.81;98.15;102363.41;10464672;28;20033;-78
2022/07/11 14:39:22;;;;;;;0.00;0.00;;;;;;;22.74;93.47;102362.56;10463984;28;20577;-78
2022/07/11 14:44:24;;;;;;;0.08;0.03;;;;;;;22.47;97.70;102366.09;10434630;28;20048;-78
2022/07/11 14:49:26;;;;;;;0.00;0.00;;;;;;;22.62;99.60;102370.44;10452106;28;20045;-78
2022/07/11 14:54:28;;;;;;;0.00;0.00;;;;;;;22.07;100.00;102369.56;10451727;28;20060;-79
2022/07/11 14:59:29;;;;;;;0.00;0.00;;;;;;;22.17;99.28;102366.03;10434789;28;20061;-78
2022/07/11 15:04:31;;;;;;;0.30;0.30;;;;;;;22.42;97.53;102373.97;10452024;28;20037;-78
2022/07/11 15:14:53;;;;;;;0.00;0.00;;;;;;;22.58;98.30;102366.94;10444804;28;20041;-78
2022/07/11 15:19:55;;;;;;;0.10;0.10;;;;;;;22.41;100.00;102374.84;10452162;28;20095;-78
2022/07/11 15:24:57;;;;;;;0.00;0.00;;;;;;;22.38;98.55;102369.53;10449253;28;20099;-79
2022/07/11 15:29:59;;;;;;;0.00;0.00;;;;;;;22.34;97.03;102373.94;10450585;28;20253;-79
2022/07/11 15:35:01;;;;;;;0.20;0.10;;;;;;;22.48;100.00;102370.47;10451190;28;20037;-79
2022/07/11 15:40:03;;;;;;;0.08;0.08;;;;;;;22.49;99.86;102383.59;10439754;28;20060;-79
2022/07/11 15:45:08;;;;;;;0.00;0.00;;;;;;;22.34;100.00;102378.31;10449000;28;20041;-79
2022/07/11 15:50:10;;;;;;;0.00;0.00;;;;;;;22.12;100.00;102385.28;10430547;28;20076;-79
2022/07/11 15:55:12;;;;;;;0.10;0.08;;;;;;;22.19;100.00;102387.94;10450392;28;20033;-79
2022/07/11 16:00:13;;;;;;;0.00;0.00;;;;;;;22.06;100.00;102375.69;10450096;28;20037;-80
2022/07/11 16:05:15;;;;;;;0.00;0.00;;;;;;;22.10;100.00;102374.78;10449828;28;20068;-79
2022/07/11 16:10:17;;;;;;;0.00;0.00;;;;;;;22.40;99.95;102365.22;10449658;28;20381;-80
2022/07/11 16:15:19;;;;;;;0.00;0.00;;;;;;;22.35;98.65;102359.06;10454555;28;20045;-79
2022/07/11 16:20:21;;;;;;;0.10;0.10;;;;;;;22.17;98.37;102350.31;10443835;28;20111;-79
2022/07/11 16:25:23;;;;;;;0.00;0.00;;;;;;;22.26;100.00;102359.06;10458157;28;20041;-79
2022/07/11 16:30:32;;;;;;;0.08;0.00;;;;;;;22.00;100.00;102354.69;10444956;28;20037;-79
2022/07/11 16:35:34;;;;;;;0.00;0.00;;;;;;;22.08;100.00;102362.53;10446323;28;20136;-79
2022/07/11 16:45:57;;;;;;;0.00;0.00;;;;;;;22.38;95.24;102353.78;10447367;28;20056;-80
2022/07/11 16:51:00;;;;;;;0.43;0.35;;;;;;;22.40;100.00;102346.84;10462848;28;20128;-78
2022/07/11 16:56:04;;;;;;;0.10;0.10;;;;;;;22.36;100.00;102337.19;10447963;28;20091;-79
2022/07/11 17:01:07;;;;;;;0.00;0.00;;;;;;;22.39;96.65;102346.84;10443115;28;20056;-79
2022/07/11 17:06:11;;;;;;;0.00;0.00;;;;;;;22.10;99.18;102348.53;10448618;28;20405;-78
2022/07/11 17:11:15;;;;;;;0.00;0.00;;;;;;;22.33;99.20;102345.94;10452134;28;20053;-77
2022/07/11 17:16:16;;;;;;;0.00;0.00;;;;;;;22.10;96.63;102337.19;10450534;28;20061;-79
2022/07/11 17:21:18;;;;;;;0.00;0.00;;;;;;;22.24;97.74;102340.69;10442052;28;20049;-79
2022/07/11 17:26:20;;;;;;;0.00;0.00;;;;;;;22.15;96.26;102333.66;10453272;28;20048;-79
2022/07/11 17:31:24;;;;;;;0.38;0.20;;;;;;;22.25;97.29;102337.19;10454608;28;20056;-79
2022/07/11 17:36:27;;;;;;;0.00;0.00;;;;;;;22.34;96.45;102328.44;10454693;28;20043;-79
2022/07/11 17:41:29;;;;;;;0.00;0.00;;;;;;;22.51;96.38;102323.19;10452545;28;20407;-79
2022/07/11 17:46:30;;;;;;;0.00;0.00;;;;;;;22.33;95.12;102329.31;10453075;28;20060;-79
2022/07/11 17:51:32;;;;;;;0.00;0.00;;;;;;;22.37;96.32;102336.31;10468729;28;20072;-79
2022/07/11 17:56:34;;;;;;;0.00;0.00;;;;;;;22.02;95.55;102332.81;10454696;28;20133;-79
2022/07/11 18:01:36;;;;;;;0.00;0.00;;;;;;;21.97;97.83;102325.81;10451794;28;20052;-79
2022/07/11 18:06:37;;;;;;;0.00;0.00;;;;;;;21.78;96.97;102338.88;10448819;28;20045;-79
2022/07/11 18:11:39;;;;;;;0.00;0.00;;;;;;;21.71;100.00;102334.50;10452891;28;20098;-79
2022/07/11 18:16:41;;;;;;;0.00;0.00;;;;;;;21.71;100.00;102334.50;10450032;28;20416;-79
2022/07/11 18:21:43;;;;;;;0.00;0.00;;;;;;;21.49;100.00;102338.78;10452245;28;20119;-79
2022/07/11 18:26:44;;;;;;;0.00;0.00;;;;;;;21.17;100.00;102339.53;10444780;28;20099;-79
2022/07/11 18:31:46;;;;;;;0.00;0.00;;;;;;;21.29;100.00;102341.34;10450857;28;20458;-79
2022/07/11 18:36:48;;;;;;;0.00;0.00;;;;;;;21.21;100.00;102344.78;10442236;28;20040;-79
2022/07/11 18:41:51;;;;;;;0.05;0.05;;;;;;;21.16;100.00;102351.78;10450898;28;20056;-79
2022/07/11 18:46:53;;;;;;;0.00;0.00;;;;;;;21.28;100.00;102344.81;10452811;28;20447;-79
2022/07/11 18:51:55;;;;;;;0.00;0.00;;;;;;;21.20;100.00;102348.28;10449887;28;20053;-79
2022/07/11 18:56:57;;;;;;;0.00;0.00;;;;;;;21.05;100.00;102358.69;10442099;28;20178;-79
2022/07/11 19:01:59;;;;;;;0.00;0.00;;;;;;;20.88;100.00;102356.88;10432808;28;20073;-79
2022/07/11 19:07:01;;;;;;;0.00;0.00;;;;;;;20.73;100.00;102356.78;10450209;28;20040;-79
2022/07/11 19:12:04;;;;;;;0.00;0.00;;;;;;;20.55;100.00;102358.34;10434106;28;20052;-78
2022/07/11 19:17:05;;;;;;;0.00;0.00;;;;;;;20.33;100.00;102361.66;10466596;28;20064;-79
2022/07/11 19:22:07;;;;;;;0.00;0.00;;;;;;;19.49;100.00;102366.00;10447851;28;20711;-77
2022/07/11 19:27:09;;;;;;;0.00;0.00;;;;;;;19.33;100.00;102371.03;10450028;28;20037;-77
2022/07/11 19:32:11;;;;;;;0.00;0.00;;;;;;;19.38;100.00;102362.38;10445512;28;20053;-77
2022/07/11 19:37:14;;;;;;;0.00;0.00;;;;;;;19.41;100.00;102375.47;10449437;28;20140;-77
2022/07/11 19:42:17;;;;;;;0.22;0.13;;;;;;;19.15;100.00;102381.25;10449126;28;20400;-78
2022/07/11 19:47:20;;;;;;;0.00;0.00;;;;;;;18.99;100.00;102388.88;10428993;28;20096;-78
2022/07/11 19:52:21;;;;;;;0.10;0.08;;;;;;;18.84;100.00;102392.06;10447645;28;20060;-78
2022/07/11 19:57:23;;;;;;;0.00;0.00;;;;;;;18.64;100.00;102391.78;10449494;28;20045;-77
2022/07/11 20:02:26;;;;;;;0.10;0.10;;;;;;;18.57;100.00;102392.56;10443642;28;20044;-77
2022/07/11 20:07:28;;;;;;;0.10;0.00;;;;;;;18.43;100.00;102404.50;10456967;28;20041;-79
2022/07/11 20:12:45;;;;;;;0.00;0.00;;;;;;;18.05;100.00;102406.44;10447272;28;20045;-79
2022/07/11 20:17:47;;;;;;;0.10;0.00;;;;;;;17.93;100.00;102408.75;10453792;28;20452;-79
2022/07/11 20:22:50;;;;;;;0.00;0.00;;;;;;;17.76;100.00;102422.31;10447924;28;20535;-79
2022/07/11 20:27:52;;;;;;;0.10;0.10;;;;;;;17.73;100.00;102418.78;10444795;28;20041;-79
2022/07/11 20:32:54;;;;;;;0.00;0.00;;;;;;;17.55;100.00;102421.88;10446060;28;20054;-79
2022/07/11 20:37:56;;;;;;;0.00;0.00;;;;;;;17.44;100.00;102421.66;10447258;28;20048;-79
2022/07/11 20:42:57;;;;;;;0.00;0.00;;;;;;;17.16;100.00;102420.19;10441339;28;20104;-79
2022/07/11 20:47:59;;;;;;;0.00;0.00;;;;;;;17.08;100.00;102425.19;10456880;28;20048;-79
2022/07/11 20:53:02;;;;;;;0.00;0.00;;;;;;;16.98;100.00;102439.72;10457189;28;20057;-79
2022/07/11 20:58:04;;;;;;;0.00;0.00;;;;;;;16.94;100.00;102443.97;10440702;28;20051;-79
2022/07/11 21:03:05;;;;;;;0.00;0.00;;;;;;;16.84;100.00;102438.47;10457272;28;20056;-79
2022/07/11 21:08:07;;;;;;;0.00;0.00;;;;;;;16.79;100.00;102434.03;10457249;28;20132;-79
2022/07/11 21:13:08;;;;;;;0.10;0.10;;;;;;;16.59;100.00;102435.25;10453020;28;20036;-79
2022/07/11 21:18:10;;;;;;;0.00;0.00;;;;;;;16.56;100.00;102435.19;10456001;28;20041;-79
2022/07/11 21:23:12;;;;;;;0.00;0.00;;;;;;;16.43;100.00;102432.25;10457437;28;20071;-79
2022/07/11 21:28:14;;;;;;;0.00;0.00;;;;;;;16.43;100.00;102434.84;10430840;28;20048;-79
2022/07/11 21:33:19;;;;;;;0.20;0.10;;;;;;;16.38;100.00;102436.47;10439493;28;20389;-80
2022/07/11 21:38:21;;;;;;;0.00;0.00;;;;;;;16.40;100.00;102429.59;10438022;28;20041;-79
2022/07/11 21:43:22;;;;;;;0.32;0.08;;;;;;;16.19;100.00;102445.50;10455733;28;20056;-79
2022/07/11 21:48:24;;;;;;;0.22;0.08;;;;;;;16.14;100.00;102458.38;10453911;28;20036;-79
2022/07/11 21:53:26;;;;;;;0.13;0.08;;;;;;;15.98;100.00;102453.56;10444466;28;20048;-80
2022/07/11 21:58:28;;;;;;;0.25;0.10;;;;;;;15.92;100.00;102448.19;10442671;28;20095;-79
2022/07/11 22:03:29;;;;;;;0.00;0.00;;;;;;;15.65;100.00;102462.13;10452757;28;20041;-79
2022/07/11 22:08:31;;;;;;;0.00;0.00;;;;;;;15.78;100.00;102463.38;10452265;28;20041;-80
2022/07/11 22:13:33;;;;;;;0.10;0.10;;;;;;;15.82;100.00;102471.28;10438605;28;20048;-79
2022/07/11 22:18:35;;;;;;;0.00;0.00;;;;;;;15.58;100.00;102449.78;10452683;28;20045;-79
2022/07/11 22:23:37;;;;;;;0.00;0.00;;;;;;;15.29;100.00;102463.66;10454286;28;20075;-79
2022/07/11 22:28:40;;;;;;;0.00;0.00;;;;;;;15.21;100.00;102466.00;10454585;28;20045;-79
2022/07/11 22:33:42;;;;;;;0.00;0.00;;;;;;;15.34;100.00;102476.78;10453573;28;20045;-79
2022/07/11 22:38:43;;;;;;;0.00;0.00;;;;;;;15.22;100.00;102483.34;10452912;28;20496;-79
2022/07/11 22:43:45;;;;;;;0.10;0.10;;;;;;;15.02;100.00;102480.13;10453279;28;20049;-79
2022/07/11 22:48:46;;;;;;;0.10;0.10;;;;;;;15.08;100.00;102479.41;10451885;28;20041;-79
2022/07/11 22:53:52;;;;;;;0.00;0.00;;;;;;;14.93;100.00;102474.59;10469598;28;20123;-79
2022/07/11 22:58:56;;;;;;;0.00;0.00;;;;;;;14.70;100.00;102466.06;10451806;28;20131;-79
2022/07/11 23:03:57;;;;;;;0.10;0.10;;;;;;;14.59;100.00;102474.31;10453252;28;20175;-79
2022/07/11 23:08:59;;;;;;;0.05;0.05;;;;;;;14.54;100.00;102478.47;10452251;28;20045;-80
2022/07/11 23:14:02;;;;;;;0.10;0.10;;;;;;;14.57;100.00;102465.59;10451929;28;20041;-79
2022/07/11 23:19:04;;;;;;;0.10;0.05;;;;;;;14.41;100.00;102468.47;10434791;28;20049;-79